sensor_id;sensor_type;location;lat;lon;timestamp;P1;durP1;ratioP1;P2;durP2;ratioP2
18383;SDS011;9318;48.644;9.456;2022-10-30T00:01:47;12.93;;;6.60;;
18383;SDS011;9318;48.644;9.456;2022-10-30T00:04:14;18.70;;;6.47;;
18383;SDS011;9318;48.644;9.456;2022-10-30T00:06:41;17.80;;;6.87;;
18383;SDS011;9318;48.644;9.456;2022-10-30T00:09:10;19.30;;;6.77;;
18383;SDS011;9318;48.644;9.456;2022-10-30T00:11:37;18.57;;;6.63;;
18383;SDS011;9318;48.644;9.456;2022-10-30T00:14:05;20.07;;;6.80;;
18383;SDS011;9318;48.644;9.456;2022-10-30T00:16:32;17.23;;;6.60;;
18383;SDS011;9318;48.644;9.456;2022-10-30T00:18:59;15.17;;;6.20;;
18383;SDS011;9318;48.644;9.456;2022-10-30T00:21:26;20.77;;;6.80;;
18383;SDS011;9318;48.644;9.456;2022-10-30T00:23:54;13.13;;;6.20;;
18383;SDS011;9318;48.644;9.456;2022-10-30T00:26:22;18.70;;;6.80;;
18383;SDS011;9318;48.644;9.456;2022-10-30T00:28:50;18.70;;;6.30;;
18383;SDS011;9318;48.644;9.456;2022-10-30T00:31:19;24.97;;;7.97;;
18383;SDS011;9318;48.644;9.456;2022-10-30T00:33:47;19.50;;;6.20;;
18383;SDS011;9318;48.644;9.456;2022-10-30T00:36:15;18.30;;;6.77;;
18383;SDS011;9318;48.644;9.456;2022-10-30T00:38:42;13.53;;;5.87;;
18383;SDS011;9318;48.644;9.456;2022-10-30T00:41:12;17.70;;;6.07;;
18383;SDS011;9318;48.644;9.456;2022-10-30T00:43:42;16.47;;;6.20;;
18383;SDS011;9318;48.644;9.456;2022-10-30T00:46:13;19.93;;;6.40;;
18383;SDS011;9318;48.644;9.456;2022-10-30T00:48:48;15.47;;;6.00;;
18383;SDS011;9318;48.644;9.456;2022-10-30T00:51:21;14.43;;;6.20;;
18383;SDS011;9318;48.644;9.456;2022-10-30T00:53:48;15.07;;;5.90;;
18383;SDS011;9318;48.644;9.456;2022-10-30T00:56:17;16.63;;;6.10;;
18383;SDS011;9318;48.644;9.456;2022-10-30T00:58:49;15.80;;;6.30;;
18383;SDS011;9318;48.644;9.456;2022-10-30T01:01:21;18.43;;;6.97;;
18383;SDS011;9318;48.644;9.456;2022-10-30T01:03:51;19.30;;;6.23;;
18383;SDS011;9318;48.644;9.456;2022-10-30T01:06:22;17.20;;;6.10;;
18383;SDS011;9318;48.644;9.456;2022-10-30T01:08:50;16.20;;;5.60;;
18383;SDS011;9318;48.644;9.456;2022-10-30T01:11:19;14.60;;;6.10;;
18383;SDS011;9318;48.644;9.456;2022-10-30T01:13:47;15.03;;;5.70;;
18383;SDS011;9318;48.644;9.456;2022-10-30T01:16:24;14.23;;;5.80;;
18383;SDS011;9318;48.644;9.456;2022-10-30T01:19:02;17.30;;;5.40;;
18383;SDS011;9318;48.644;9.456;2022-10-30T01:21:42;17.17;;;5.57;;
18383;SDS011;9318;48.644;9.456;2022-10-30T01:24:23;13.77;;;5.10;;
18383;SDS011;9318;48.644;9.456;2022-10-30T01:27:03;18.77;;;5.37;;
18383;SDS011;9318;48.644;9.456;2022-10-30T01:29:49;14.60;;;5.10;;
18383;SDS011;9318;48.644;9.456;2022-10-30T01:32:29;15.70;;;5.47;;
18383;SDS011;9318;48.644;9.456;2022-10-30T01:35:08;12.50;;;5.00;;
18383;SDS011;9318;48.644;9.456;2022-10-30T01:37:41;15.77;;;5.47;;
18383;SDS011;9318;48.644;9.456;2022-10-30T01:40:16;17.17;;;5.20;;
18383;SDS011;9318;48.644;9.456;2022-10-30T01:42:46;16.67;;;5.43;;
18383;SDS011;9318;48.644;9.456;2022-10-30T01:45:17;13.10;;;5.40;;
18383;SDS011;9318;48.644;9.456;2022-10-30T01:47:56;14.07;;;5.50;;
18383;SDS011;9318;48.644;9.456;2022-10-30T01:50:37;14.10;;;5.67;;
18383;SDS011;9318;48.644;9.456;2022-10-30T01:53:15;16.27;;;5.70;;
18383;SDS011;9318;48.644;9.456;2022-10-30T01:55:55;18.57;;;5.87;;
18383;SDS011;9318;48.644;9.456;2022-10-30T01:58:33;18.87;;;5.60;;
18383;SDS011;9318;48.644;9.456;2022-10-30T02:01:08;17.23;;;5.53;;
18383;SDS011;9318;48.644;9.456;2022-10-30T02:03:35;17.10;;;5.40;;
18383;SDS011;9318;48.644;9.456;2022-10-30T02:06:03;13.60;;;5.07;;
18383;SDS011;9318;48.644;9.456;2022-10-30T02:08:31;11.47;;;4.77;;
18383;SDS011;9318;48.644;9.456;2022-10-30T02:10:58;12.00;;;5.30;;
18383;SDS011;9318;48.644;9.456;2022-10-30T02:13:25;13.93;;;5.43;;
18383;SDS011;9318;48.644;9.456;2022-10-30T02:15:52;15.17;;;5.00;;
18383;SDS011;9318;48.644;9.456;2022-10-30T02:18:21;13.03;;;5.70;;
18383;SDS011;9318;48.644;9.456;2022-10-30T02:20:50;15.57;;;5.13;;
18383;SDS011;9318;48.644;9.456;2022-10-30T02:23:17;12.90;;;5.87;;
18383;SDS011;9318;48.644;9.456;2022-10-30T02:25:46;14.87;;;5.10;;
18383;SDS011;9318;48.644;9.456;2022-10-30T02:28:13;14.07;;;5.47;;
18383;SDS011;9318;48.644;9.456;2022-10-30T02:30:40;13.53;;;5.13;;
18383;SDS011;9318;48.644;9.456;2022-10-30T02:33:09;15.83;;;5.13;;
18383;SDS011;9318;48.644;9.456;2022-10-30T02:35:36;14.13;;;5.27;;
18383;SDS011;9318;48.644;9.456;2022-10-30T02:38:04;12.87;;;5.43;;
18383;SDS011;9318;48.644;9.456;2022-10-30T02:40:31;18.13;;;6.17;;
18383;SDS011;9318;48.644;9.456;2022-10-30T02:42:58;13.17;;;5.33;;
18383;SDS011;9318;48.644;9.456;2022-10-30T02:45:25;13.07;;;5.00;;
18383;SDS011;9318;48.644;9.456;2022-10-30T02:47:52;14.63;;;5.60;;
18383;SDS011;9318;48.644;9.456;2022-10-30T02:50:19;13.43;;;5.70;;
18383;SDS011;9318;48.644;9.456;2022-10-30T02:52:46;15.67;;;5.23;;
18383;SDS011;9318;48.644;9.456;2022-10-30T02:55:15;15.00;;;4.97;;
18383;SDS011;9318;48.644;9.456;2022-10-30T02:57:42;15.27;;;5.20;;
18383;SDS011;9318;48.644;9.456;2022-10-30T03:00:09;13.83;;;5.30;;
18383;SDS011;9318;48.644;9.456;2022-10-30T03:02:37;12.13;;;5.13;;
18383;SDS011;9318;48.644;9.456;2022-10-30T03:05:04;10.87;;;5.00;;
18383;SDS011;9318;48.644;9.456;2022-10-30T03:07:31;12.47;;;5.70;;
18383;SDS011;9318;48.644;9.456;2022-10-30T03:09:58;14.97;;;5.23;;
18383;SDS011;9318;48.644;9.456;2022-10-30T03:12:27;14.37;;;5.40;;
18383;SDS011;9318;48.644;9.456;2022-10-30T03:14:54;16.13;;;5.37;;
18383;SDS011;9318;48.644;9.456;2022-10-30T03:17:21;15.43;;;5.77;;
18383;SDS011;9318;48.644;9.456;2022-10-30T03:19:48;14.73;;;5.83;;
18383;SDS011;9318;48.644;9.456;2022-10-30T03:22:15;13.10;;;5.57;;
18383;SDS011;9318;48.644;9.456;2022-10-30T03:24:42;17.63;;;5.97;;
18383;SDS011;9318;48.644;9.456;2022-10-30T03:27:09;14.83;;;5.67;;
18383;SDS011;9318;48.644;9.456;2022-10-30T03:29:37;15.13;;;5.63;;
18383;SDS011;9318;48.644;9.456;2022-10-30T03:32:07;13.03;;;5.57;;
18383;SDS011;9318;48.644;9.456;2022-10-30T03:34:35;12.00;;;5.47;;
18383;SDS011;9318;48.644;9.456;2022-10-30T03:37:03;16.70;;;5.23;;
18383;SDS011;9318;48.644;9.456;2022-10-30T03:39:30;14.80;;;5.33;;
18383;SDS011;9318;48.644;9.456;2022-10-30T03:41:58;10.83;;;5.20;;
18383;SDS011;9318;48.644;9.456;2022-10-30T03:44:25;12.90;;;5.40;;
18383;SDS011;9318;48.644;9.456;2022-10-30T03:46:53;13.83;;;5.47;;
18383;SDS011;9318;48.644;9.456;2022-10-30T03:49:20;19.23;;;6.20;;
18383;SDS011;9318;48.644;9.456;2022-10-30T03:51:47;14.47;;;5.67;;
18383;SDS011;9318;48.644;9.456;2022-10-30T03:54:14;13.93;;;5.43;;
18383;SDS011;9318;48.644;9.456;2022-10-30T03:56:43;16.83;;;5.67;;
18383;SDS011;9318;48.644;9.456;2022-10-30T03:59:10;15.20;;;5.77;;
18383;SDS011;9318;48.644;9.456;2022-10-30T04:01:37;14.17;;;5.83;;
18383;SDS011;9318;48.644;9.456;2022-10-30T04:04:05;14.93;;;5.50;;
18383;SDS011;9318;48.644;9.456;2022-10-30T04:06:32;15.27;;;5.50;;
18383;SDS011;9318;48.644;9.456;2022-10-30T04:08:59;13.50;;;5.63;;
18383;SDS011;9318;48.644;9.456;2022-10-30T04:11:26;13.83;;;5.37;;
18383;SDS011;9318;48.644;9.456;2022-10-30T04:13:53;18.63;;;6.47;;
18383;SDS011;9318;48.644;9.456;2022-10-30T04:16:20;14.60;;;5.20;;
18383;SDS011;9318;48.644;9.456;2022-10-30T04:18:46;14.77;;;5.63;;
18383;SDS011;9318;48.644;9.456;2022-10-30T04:21:15;17.27;;;5.93;;
18383;SDS011;9318;48.644;9.456;2022-10-30T04:23:42;13.53;;;5.30;;
18383;SDS011;9318;48.644;9.456;2022-10-30T04:26:08;19.83;;;5.63;;
18383;SDS011;9318;48.644;9.456;2022-10-30T04:28:35;16.83;;;5.87;;
18383;SDS011;9318;48.644;9.456;2022-10-30T04:31:02;17.33;;;5.77;;
18383;SDS011;9318;48.644;9.456;2022-10-30T04:33:29;14.03;;;5.70;;
18383;SDS011;9318;48.644;9.456;2022-10-30T04:35:56;14.77;;;5.40;;
18383;SDS011;9318;48.644;9.456;2022-10-30T04:38:24;18.23;;;5.90;;
18383;SDS011;9318;48.644;9.456;2022-10-30T04:40:51;13.00;;;5.53;;
18383;SDS011;9318;48.644;9.456;2022-10-30T04:43:18;12.50;;;5.30;;
18383;SDS011;9318;48.644;9.456;2022-10-30T04:45:45;17.13;;;6.57;;
18383;SDS011;9318;48.644;9.456;2022-10-30T04:48:13;15.83;;;5.83;;
18383;SDS011;9318;48.644;9.456;2022-10-30T04:50:41;14.47;;;6.10;;
18383;SDS011;9318;48.644;9.456;2022-10-30T04:53:09;16.03;;;6.13;;
18383;SDS011;9318;48.644;9.456;2022-10-30T04:55:40;13.97;;;6.00;;
18383;SDS011;9318;48.644;9.456;2022-10-30T04:58:08;14.30;;;5.50;;
18383;SDS011;9318;48.644;9.456;2022-10-30T05:00:36;13.50;;;5.50;;
18383;SDS011;9318;48.644;9.456;2022-10-30T05:03:03;12.63;;;5.27;;
18383;SDS011;9318;48.644;9.456;2022-10-30T05:05:30;11.03;;;5.40;;
18383;SDS011;9318;48.644;9.456;2022-10-30T05:07:57;14.87;;;5.87;;
18383;SDS011;9318;48.644;9.456;2022-10-30T05:10:24;14.70;;;5.30;;
18383;SDS011;9318;48.644;9.456;2022-10-30T05:12:52;13.20;;;5.20;;
18383;SDS011;9318;48.644;9.456;2022-10-30T05:15:19;19.70;;;5.60;;
18383;SDS011;9318;48.644;9.456;2022-10-30T05:17:49;13.70;;;5.10;;
18383;SDS011;9318;48.644;9.456;2022-10-30T05:20:17;13.63;;;5.17;;
18383;SDS011;9318;48.644;9.456;2022-10-30T05:22:45;15.20;;;5.47;;
18383;SDS011;9318;48.644;9.456;2022-10-30T05:25:12;14.37;;;5.10;;
18383;SDS011;9318;48.644;9.456;2022-10-30T05:27:39;10.83;;;5.10;;
18383;SDS011;9318;48.644;9.456;2022-10-30T05:30:08;14.40;;;5.30;;
18383;SDS011;9318;48.644;9.456;2022-10-30T05:32:36;14.43;;;6.00;;
18383;SDS011;9318;48.644;9.456;2022-10-30T05:35:03;17.37;;;5.37;;
18383;SDS011;9318;48.644;9.456;2022-10-30T05:37:30;11.83;;;5.40;;
18383;SDS011;9318;48.644;9.456;2022-10-30T05:39:57;10.90;;;4.77;;
18383;SDS011;9318;48.644;9.456;2022-10-30T05:42:24;12.03;;;5.50;;
18383;SDS011;9318;48.644;9.456;2022-10-30T05:44:51;15.37;;;5.70;;
18383;SDS011;9318;48.644;9.456;2022-10-30T05:47:19;13.27;;;5.20;;
18383;SDS011;9318;48.644;9.456;2022-10-30T05:49:46;11.80;;;4.97;;
18383;SDS011;9318;48.644;9.456;2022-10-30T05:52:13;16.37;;;5.33;;
18383;SDS011;9318;48.644;9.456;2022-10-30T05:54:40;15.00;;;5.33;;
18383;SDS011;9318;48.644;9.456;2022-10-30T05:57:07;17.70;;;5.37;;
18383;SDS011;9318;48.644;9.456;2022-10-30T05:59:34;12.47;;;5.30;;
18383;SDS011;9318;48.644;9.456;2022-10-30T06:02:00;20.47;;;6.47;;
18383;SDS011;9318;48.644;9.456;2022-10-30T06:04:29;11.47;;;5.07;;
18383;SDS011;9318;48.644;9.456;2022-10-30T06:06:55;17.93;;;5.67;;
18383;SDS011;9318;48.644;9.456;2022-10-30T06:09:22;14.33;;;5.63;;
18383;SDS011;9318;48.644;9.456;2022-10-30T06:11:49;16.60;;;5.20;;
18383;SDS011;9318;48.644;9.456;2022-10-30T06:14:16;12.57;;;5.50;;
18383;SDS011;9318;48.644;9.456;2022-10-30T06:16:43;15.03;;;5.90;;
18383;SDS011;9318;48.644;9.456;2022-10-30T06:19:10;15.97;;;6.53;;
18383;SDS011;9318;48.644;9.456;2022-10-30T06:21:38;13.73;;;5.60;;
18383;SDS011;9318;48.644;9.456;2022-10-30T06:24:05;14.87;;;5.53;;
18383;SDS011;9318;48.644;9.456;2022-10-30T06:26:33;16.90;;;5.17;;
18383;SDS011;9318;48.644;9.456;2022-10-30T06:28:59;12.67;;;4.80;;
18383;SDS011;9318;48.644;9.456;2022-10-30T06:31:26;15.23;;;5.77;;
18383;SDS011;9318;48.644;9.456;2022-10-30T06:33:53;12.73;;;5.40;;
18383;SDS011;9318;48.644;9.456;2022-10-30T06:36:20;13.47;;;5.47;;
18383;SDS011;9318;48.644;9.456;2022-10-30T06:38:49;13.77;;;5.87;;
18383;SDS011;9318;48.644;9.456;2022-10-30T06:41:16;14.50;;;5.50;;
18383;SDS011;9318;48.644;9.456;2022-10-30T06:43:42;15.40;;;5.73;;
18383;SDS011;9318;48.644;9.456;2022-10-30T06:46:09;15.90;;;5.80;;
18383;SDS011;9318;48.644;9.456;2022-10-30T06:48:36;17.87;;;6.23;;
18383;SDS011;9318;48.644;9.456;2022-10-30T06:51:03;17.63;;;6.10;;
18383;SDS011;9318;48.644;9.456;2022-10-30T06:53:30;14.37;;;5.90;;
18383;SDS011;9318;48.644;9.456;2022-10-30T06:55:58;12.43;;;5.13;;
18383;SDS011;9318;48.644;9.456;2022-10-30T06:58:29;13.70;;;5.27;;
18383;SDS011;9318;48.644;9.456;2022-10-30T07:00:58;13.20;;;5.40;;
18383;SDS011;9318;48.644;9.456;2022-10-30T07:03:25;13.60;;;5.60;;
18383;SDS011;9318;48.644;9.456;2022-10-30T07:05:52;13.77;;;5.30;;
18383;SDS011;9318;48.644;9.456;2022-10-30T07:08:19;11.03;;;5.30;;
18383;SDS011;9318;48.644;9.456;2022-10-30T07:10:45;14.63;;;5.60;;
18383;SDS011;9318;48.644;9.456;2022-10-30T07:13:14;11.00;;;4.87;;
18383;SDS011;9318;48.644;9.456;2022-10-30T07:15:41;14.37;;;4.90;;
18383;SDS011;9318;48.644;9.456;2022-10-30T07:18:08;12.80;;;5.27;;
18383;SDS011;9318;48.644;9.456;2022-10-30T07:20:35;12.13;;;5.30;;
18383;SDS011;9318;48.644;9.456;2022-10-30T07:23:02;17.30;;;5.40;;
18383;SDS011;9318;48.644;9.456;2022-10-30T07:25:29;15.77;;;5.60;;
18383;SDS011;9318;48.644;9.456;2022-10-30T07:27:56;15.10;;;4.93;;
18383;SDS011;9318;48.644;9.456;2022-10-30T07:30:26;14.77;;;5.43;;
18383;SDS011;9318;48.644;9.456;2022-10-30T07:32:56;11.57;;;5.70;;
18383;SDS011;9318;48.644;9.456;2022-10-30T07:35:24;16.23;;;5.47;;
18383;SDS011;9318;48.644;9.456;2022-10-30T07:37:51;13.10;;;4.93;;
18383;SDS011;9318;48.644;9.456;2022-10-30T07:40:18;12.73;;;5.07;;
18383;SDS011;9318;48.644;9.456;2022-10-30T07:42:45;13.77;;;5.10;;
18383;SDS011;9318;48.644;9.456;2022-10-30T07:45:12;11.60;;;5.10;;
18383;SDS011;9318;48.644;9.456;2022-10-30T07:47:41;13.57;;;5.70;;
18383;SDS011;9318;48.644;9.456;2022-10-30T07:50:09;14.27;;;5.17;;
18383;SDS011;9318;48.644;9.456;2022-10-30T07:52:36;13.97;;;5.33;;
18383;SDS011;9318;48.644;9.456;2022-10-30T07:55:03;17.80;;;5.93;;
18383;SDS011;9318;48.644;9.456;2022-10-30T07:57:33;12.13;;;5.17;;
18383;SDS011;9318;48.644;9.456;2022-10-30T08:00:01;15.60;;;5.20;;
18383;SDS011;9318;48.644;9.456;2022-10-30T08:02:29;18.60;;;5.77;;
18383;SDS011;9318;48.644;9.456;2022-10-30T08:04:57;13.97;;;5.47;;
18383;SDS011;9318;48.644;9.456;2022-10-30T08:07:27;17.23;;;5.87;;
18383;SDS011;9318;48.644;9.456;2022-10-30T08:09:55;16.87;;;5.50;;
18383;SDS011;9318;48.644;9.456;2022-10-30T08:12:22;15.00;;;5.60;;
18383;SDS011;9318;48.644;9.456;2022-10-30T08:14:49;15.80;;;5.50;;
18383;SDS011;9318;48.644;9.456;2022-10-30T08:17:16;14.97;;;5.60;;
18383;SDS011;9318;48.644;9.456;2022-10-30T08:19:43;12.10;;;5.40;;
18383;SDS011;9318;48.644;9.456;2022-10-30T08:22:11;14.37;;;4.97;;
18383;SDS011;9318;48.644;9.456;2022-10-30T08:24:38;15.27;;;5.60;;
18383;SDS011;9318;48.644;9.456;2022-10-30T08:27:06;16.20;;;5.93;;
18383;SDS011;9318;48.644;9.456;2022-10-30T08:29:33;14.97;;;5.60;;
18383;SDS011;9318;48.644;9.456;2022-10-30T08:32:00;13.57;;;5.10;;
18383;SDS011;9318;48.644;9.456;2022-10-30T08:34:27;16.20;;;6.17;;
18383;SDS011;9318;48.644;9.456;2022-10-30T08:36:56;15.87;;;6.27;;
18383;SDS011;9318;48.644;9.456;2022-10-30T08:39:25;16.47;;;6.70;;
18383;SDS011;9318;48.644;9.456;2022-10-30T08:41:52;19.70;;;6.70;;
18383;SDS011;9318;48.644;9.456;2022-10-30T08:44:19;16.43;;;6.30;;
18383;SDS011;9318;48.644;9.456;2022-10-30T08:46:46;16.07;;;6.30;;
18383;SDS011;9318;48.644;9.456;2022-10-30T08:49:13;16.93;;;6.33;;
18383;SDS011;9318;48.644;9.456;2022-10-30T08:51:40;16.70;;;5.67;;
18383;SDS011;9318;48.644;9.456;2022-10-30T08:54:08;14.50;;;5.50;;
18383;SDS011;9318;48.644;9.456;2022-10-30T08:56:37;19.60;;;6.10;;
18383;SDS011;9318;48.644;9.456;2022-10-30T08:59:04;18.33;;;5.73;;
18383;SDS011;9318;48.644;9.456;2022-10-30T09:01:31;16.93;;;6.13;;
18383;SDS011;9318;48.644;9.456;2022-10-30T09:04:00;18.50;;;6.40;;
18383;SDS011;9318;48.644;9.456;2022-10-30T09:06:27;15.70;;;5.60;;
18383;SDS011;9318;48.644;9.456;2022-10-30T09:08:55;18.03;;;5.67;;
18383;SDS011;9318;48.644;9.456;2022-10-30T09:11:22;13.43;;;5.40;;
18383;SDS011;9318;48.644;9.456;2022-10-30T09:13:50;17.50;;;5.23;;
18383;SDS011;9318;48.644;9.456;2022-10-30T09:16:17;17.40;;;5.00;;
18383;SDS011;9318;48.644;9.456;2022-10-30T09:18:44;18.27;;;5.30;;
18383;SDS011;9318;48.644;9.456;2022-10-30T09:21:10;17.20;;;5.20;;
18383;SDS011;9318;48.644;9.456;2022-10-30T09:23:37;18.90;;;5.40;;
18383;SDS011;9318;48.644;9.456;2022-10-30T09:26:04;17.20;;;5.50;;
18383;SDS011;9318;48.644;9.456;2022-10-30T09:28:31;17.63;;;5.47;;
18383;SDS011;9318;48.644;9.456;2022-10-30T09:31:01;16.17;;;5.38;;
18383;SDS011;9318;48.644;9.456;2022-10-30T09:33:28;14.70;;;5.15;;
18383;SDS011;9318;48.644;9.456;2022-10-30T09:35:55;15.52;;;5.00;;
18383;SDS011;9318;48.644;9.456;2022-10-30T09:38:22;15.20;;;5.05;;
18383;SDS011;9318;48.644;9.456;2022-10-30T09:40:53;18.23;;;5.97;;
18383;SDS011;9318;48.644;9.456;2022-10-30T09:43:39;16.05;;;6.05;;
18383;SDS011;9318;48.644;9.456;2022-10-30T09:46:22;15.63;;;5.72;;
18383;SDS011;9318;48.644;9.456;2022-10-30T09:49:19;11.05;;;5.00;;
18383;SDS011;9318;48.644;9.456;2022-10-30T09:52:13;15.82;;;5.20;;
18383;SDS011;9318;48.644;9.456;2022-10-30T09:55:04;15.68;;;4.80;;
18383;SDS011;9318;48.644;9.456;2022-10-30T09:57:46;17.73;;;5.00;;
18383;SDS011;9318;48.644;9.456;2022-10-30T10:00:19;12.13;;;4.60;;
18383;SDS011;9318;48.644;9.456;2022-10-30T10:02:55;17.02;;;4.60;;
18383;SDS011;9318;48.644;9.456;2022-10-30T10:05:31;13.32;;;4.35;;
18383;SDS011;9318;48.644;9.456;2022-10-30T10:08:08;12.48;;;4.78;;
18383;SDS011;9318;48.644;9.456;2022-10-30T10:10:41;12.75;;;4.57;;
18383;SDS011;9318;48.644;9.456;2022-10-30T10:13:12;12.50;;;4.53;;
18383;SDS011;9318;48.644;9.456;2022-10-30T10:15:48;16.45;;;5.10;;
18383;SDS011;9318;48.644;9.456;2022-10-30T10:18:24;18.83;;;4.50;;
18383;SDS011;9318;48.644;9.456;2022-10-30T10:20:55;12.68;;;4.68;;
18383;SDS011;9318;48.644;9.456;2022-10-30T10:23:28;16.25;;;4.70;;
18383;SDS011;9318;48.644;9.456;2022-10-30T10:25:59;12.15;;;4.40;;
18383;SDS011;9318;48.644;9.456;2022-10-30T10:28:41;13.35;;;5.03;;
18383;SDS011;9318;48.644;9.456;2022-10-30T10:31:28;13.73;;;4.53;;
18383;SDS011;9318;48.644;9.456;2022-10-30T10:34:08;15.05;;;4.70;;
18383;SDS011;9318;48.644;9.456;2022-10-30T10:36:51;18.02;;;4.28;;
18383;SDS011;9318;48.644;9.456;2022-10-30T10:39:29;12.30;;;4.38;;
18383;SDS011;9318;48.644;9.456;2022-10-30T10:42:14;17.00;;;4.47;;
18383;SDS011;9318;48.644;9.456;2022-10-30T10:44:52;15.93;;;4.25;;
18383;SDS011;9318;48.644;9.456;2022-10-30T10:47:43;10.18;;;4.03;;
18383;SDS011;9318;48.644;9.456;2022-10-30T10:50:28;15.50;;;3.95;;
18383;SDS011;9318;48.644;9.456;2022-10-30T10:52:59;12.95;;;4.07;;
18383;SDS011;9318;48.644;9.456;2022-10-30T10:55:31;14.82;;;4.03;;
18383;SDS011;9318;48.644;9.456;2022-10-30T10:58:03;13.50;;;4.05;;
18383;SDS011;9318;48.644;9.456;2022-10-30T11:00:35;12.13;;;4.00;;
18383;SDS011;9318;48.644;9.456;2022-10-30T11:03:04;15.82;;;4.72;;
18383;SDS011;9318;48.644;9.456;2022-10-30T11:05:37;12.15;;;4.38;;
18383;SDS011;9318;48.644;9.456;2022-10-30T11:08:10;14.27;;;4.57;;
18383;SDS011;9318;48.644;9.456;2022-10-30T11:10:39;11.73;;;4.40;;
18383;SDS011;9318;48.644;9.456;2022-10-30T11:13:05;10.35;;;3.80;;
18383;SDS011;9318;48.644;9.456;2022-10-30T11:15:36;12.40;;;4.05;;
18383;SDS011;9318;48.644;9.456;2022-10-30T11:18:13;10.43;;;3.97;;
18383;SDS011;9318;48.644;9.456;2022-10-30T11:20:43;12.20;;;3.92;;
18383;SDS011;9318;48.644;9.456;2022-10-30T11:23:29;12.05;;;3.90;;
18383;SDS011;9318;48.644;9.456;2022-10-30T11:26:00;12.95;;;3.97;;
18383;SDS011;9318;48.644;9.456;2022-10-30T11:28:33;16.52;;;4.55;;
18383;SDS011;9318;48.644;9.456;2022-10-30T11:31:17;10.45;;;3.60;;
18383;SDS011;9318;48.644;9.456;2022-10-30T11:33:48;9.45;;;3.90;;
18383;SDS011;9318;48.644;9.456;2022-10-30T11:36:18;9.77;;;3.95;;
18383;SDS011;9318;48.644;9.456;2022-10-30T11:38:48;10.60;;;3.75;;
18383;SDS011;9318;48.644;9.456;2022-10-30T11:41:15;8.07;;;3.97;;
18383;SDS011;9318;48.644;9.456;2022-10-30T11:43:43;16.55;;;4.60;;
18383;SDS011;9318;48.644;9.456;2022-10-30T11:46:15;12.13;;;4.70;;
18383;SDS011;9318;48.644;9.456;2022-10-30T11:48:47;13.55;;;4.28;;
18383;SDS011;9318;48.644;9.456;2022-10-30T11:51:29;10.73;;;4.63;;
18383;SDS011;9318;48.644;9.456;2022-10-30T11:53:59;8.82;;;4.45;;
18383;SDS011;9318;48.644;9.456;2022-10-30T11:56:27;15.57;;;3.88;;
18383;SDS011;9318;48.644;9.456;2022-10-30T11:58:56;18.50;;;4.28;;
18383;SDS011;9318;48.644;9.456;2022-10-30T12:01:25;8.88;;;4.20;;
18383;SDS011;9318;48.644;9.456;2022-10-30T12:03:53;13.98;;;4.40;;
18383;SDS011;9318;48.644;9.456;2022-10-30T12:06:25;16.35;;;4.63;;
18383;SDS011;9318;48.644;9.456;2022-10-30T12:08:59;11.10;;;3.75;;
18383;SDS011;9318;48.644;9.456;2022-10-30T12:11:28;17.23;;;4.20;;
18383;SDS011;9318;48.644;9.456;2022-10-30T12:13:56;9.40;;;3.95;;
18383;SDS011;9318;48.644;9.456;2022-10-30T12:16:24;8.75;;;4.10;;
18383;SDS011;9318;48.644;9.456;2022-10-30T12:18:53;13.43;;;4.20;;
18383;SDS011;9318;48.644;9.456;2022-10-30T12:21:26;10.38;;;3.97;;
18383;SDS011;9318;48.644;9.456;2022-10-30T12:23:56;8.48;;;4.20;;
18383;SDS011;9318;48.644;9.456;2022-10-30T12:26:30;8.25;;;3.90;;
18383;SDS011;9318;48.644;9.456;2022-10-30T12:29:00;12.35;;;4.18;;
18383;SDS011;9318;48.644;9.456;2022-10-30T12:31:34;15.25;;;4.70;;
18383;SDS011;9318;48.644;9.456;2022-10-30T12:34:25;8.65;;;4.00;;
18383;SDS011;9318;48.644;9.456;2022-10-30T12:36:58;11.70;;;4.22;;
18383;SDS011;9318;48.644;9.456;2022-10-30T12:39:35;9.80;;;3.70;;
18383;SDS011;9318;48.644;9.456;2022-10-30T12:42:14;9.25;;;3.63;;
18383;SDS011;9318;48.644;9.456;2022-10-30T12:44:43;10.48;;;4.20;;
18383;SDS011;9318;48.644;9.456;2022-10-30T12:47:17;12.10;;;4.10;;
18383;SDS011;9318;48.644;9.456;2022-10-30T12:49:52;10.32;;;3.95;;
18383;SDS011;9318;48.644;9.456;2022-10-30T12:52:24;8.77;;;4.03;;
18383;SDS011;9318;48.644;9.456;2022-10-30T12:54:59;6.72;;;3.35;;
18383;SDS011;9318;48.644;9.456;2022-10-30T12:57:34;7.90;;;3.58;;
18383;SDS011;9318;48.644;9.456;2022-10-30T13:00:05;8.63;;;3.47;;
18383;SDS011;9318;48.644;9.456;2022-10-30T13:02:39;6.88;;;3.47;;
18383;SDS011;9318;48.644;9.456;2022-10-30T13:05:16;6.80;;;3.50;;
18383;SDS011;9318;48.644;9.456;2022-10-30T13:07:50;10.63;;;3.97;;
18383;SDS011;9318;48.644;9.456;2022-10-30T13:10:27;8.27;;;3.47;;
18383;SDS011;9318;48.644;9.456;2022-10-30T13:13:01;5.18;;;3.55;;
18383;SDS011;9318;48.644;9.456;2022-10-30T13:15:35;7.47;;;3.42;;
18383;SDS011;9318;48.644;9.456;2022-10-30T13:18:11;9.10;;;3.70;;
18383;SDS011;9318;48.644;9.456;2022-10-30T13:20:41;6.03;;;3.42;;
18383;SDS011;9318;48.644;9.456;2022-10-30T13:23:14;6.93;;;3.53;;
18383;SDS011;9318;48.644;9.456;2022-10-30T13:25:50;9.82;;;3.95;;
18383;SDS011;9318;48.644;9.456;2022-10-30T13:28:24;7.60;;;3.65;;
18383;SDS011;9318;48.644;9.456;2022-10-30T13:30:58;11.23;;;3.47;;
18383;SDS011;9318;48.644;9.456;2022-10-30T13:33:30;10.02;;;3.60;;
18383;SDS011;9318;48.644;9.456;2022-10-30T13:36:06;8.52;;;3.78;;
18383;SDS011;9318;48.644;9.456;2022-10-30T13:38:42;6.35;;;3.40;;
18383;SDS011;9318;48.644;9.456;2022-10-30T13:41:18;8.48;;;3.90;;
18383;SDS011;9318;48.644;9.456;2022-10-30T13:43:54;6.38;;;3.40;;
18383;SDS011;9318;48.644;9.456;2022-10-30T13:46:45;5.88;;;3.00;;
18383;SDS011;9318;48.644;9.456;2022-10-30T13:49:30;5.65;;;3.30;;
18383;SDS011;9318;48.644;9.456;2022-10-30T13:52:15;6.90;;;3.30;;
18383;SDS011;9318;48.644;9.456;2022-10-30T13:54:53;10.02;;;4.25;;
18383;SDS011;9318;48.644;9.456;2022-10-30T13:57:28;6.32;;;3.60;;
18383;SDS011;9318;48.644;9.456;2022-10-30T14:00:02;10.07;;;3.50;;
18383;SDS011;9318;48.644;9.456;2022-10-30T14:02:42;9.45;;;3.50;;
18383;SDS011;9318;48.644;9.456;2022-10-30T14:05:25;5.60;;;3.30;;
18383;SDS011;9318;48.644;9.456;2022-10-30T14:08:01;12.02;;;4.25;;
18383;SDS011;9318;48.644;9.456;2022-10-30T14:10:43;12.20;;;4.22;;
18383;SDS011;9318;48.644;9.456;2022-10-30T14:13:23;7.45;;;3.60;;
18383;SDS011;9318;48.644;9.456;2022-10-30T14:15:52;6.03;;;3.13;;
18383;SDS011;9318;48.644;9.456;2022-10-30T14:18:27;11.60;;;3.70;;
18383;SDS011;9318;48.644;9.456;2022-10-30T14:24:22;7.93;;;3.15;;
18383;SDS011;9318;48.644;9.456;2022-10-30T14:26:53;6.00;;;3.05;;
18383;SDS011;9318;48.644;9.456;2022-10-30T14:38:20;14.25;;;4.97;;
18383;SDS011;9318;48.644;9.456;2022-10-30T14:40:54;5.15;;;3.03;;
18383;SDS011;9318;48.644;9.456;2022-10-30T14:43:33;6.25;;;3.30;;
18383;SDS011;9318;48.644;9.456;2022-10-30T14:46:11;6.43;;;3.03;;
18383;SDS011;9318;48.644;9.456;2022-10-30T14:48:51;14.57;;;4.72;;
18383;SDS011;9318;48.644;9.456;2022-10-30T14:51:27;4.53;;;3.03;;
18383;SDS011;9318;48.644;9.456;2022-10-30T14:54:01;9.15;;;3.67;;
18383;SDS011;9318;48.644;9.456;2022-10-30T14:56:40;5.80;;;3.10;;
18383;SDS011;9318;48.644;9.456;2022-10-30T14:59:21;6.93;;;3.60;;
18383;SDS011;9318;48.644;9.456;2022-10-30T15:01:54;7.15;;;3.25;;
18383;SDS011;9318;48.644;9.456;2022-10-30T15:04:29;7.97;;;3.47;;
18383;SDS011;9318;48.644;9.456;2022-10-30T15:07:06;8.02;;;3.42;;
18383;SDS011;9318;48.644;9.456;2022-10-30T15:09:42;5.20;;;3.08;;
18383;SDS011;9318;48.644;9.456;2022-10-30T15:12:23;6.90;;;3.45;;
18383;SDS011;9318;48.644;9.456;2022-10-30T15:15:00;5.60;;;3.30;;
18383;SDS011;9318;48.644;9.456;2022-10-30T15:17:31;15.32;;;4.47;;
18383;SDS011;9318;48.644;9.456;2022-10-30T15:20:03;15.57;;;5.68;;
18383;SDS011;9318;48.644;9.456;2022-10-30T15:22:33;6.10;;;3.58;;
18383;SDS011;9318;48.644;9.456;2022-10-30T15:25:00;5.25;;;3.10;;